createdAt,value
2018-10-06T00:00:04.155Z,57.89
2018-10-06T00:02:10.281Z,57.84
2018-10-06T00:04:16.362Z,57.38
2018-10-06T00:06:22.602Z,58.11
2018-10-06T00:08:28.707Z,57.62
2018-10-06T00:10:34.914Z,58.17
2018-10-06T00:12:41.045Z,58.51
2018-10-06T00:14:47.156Z,58.61
2018-10-06T00:16:53.317Z,58.08
2018-10-06T00:18:59.450Z,57.78
2018-10-06T00:21:05.625Z,58.16
2018-10-06T00:23:11.825Z,58.39
2018-10-06T00:25:17.984Z,58.91
2018-10-06T00:27:24.851Z,58.73
2018-10-06T00:29:31.024Z,58.54
2018-10-06T00:31:37.143Z,58.55
2018-10-06T00:33:43.278Z,58.59
2018-10-06T00:35:49.438Z,58.53
2018-10-06T00:37:59.081Z,58.57
2018-10-06T00:40:05.213Z,58.83
2018-10-06T00:42:11.343Z,58.21
2018-10-06T00:44:17.484Z,58.26
2018-10-06T00:46:23.574Z,58.68
2018-10-06T00:48:29.724Z,58.90
2018-10-06T00:50:35.848Z,58.52
2018-10-06T00:52:48.686Z,58.88
2018-10-06T00:54:55.137Z,58.33
2018-10-06T00:57:01.264Z,59.02
2018-10-06T00:59:07.457Z,58.89
2018-10-06T01:01:13.588Z,58.20
2018-10-06T01:03:19.695Z,58.49
2018-10-06T01:05:25.797Z,58.39
2018-10-06T01:07:31.922Z,58.67
2018-10-06T01:09:38.011Z,58.05
2018-10-06T01:11:44.161Z,58.70
2018-10-06T01:13:50.272Z,58.42
2018-10-06T01:15:56.452Z,58.53
2018-10-06T01:18:02.528Z,58.59
2018-10-06T01:20:08.654Z,58.26
2018-10-06T01:22:14.729Z,59.05
2018-10-06T01:24:20.795Z,58.64
2018-10-06T01:26:26.867Z,58.40
2018-10-06T01:28:32.971Z,58.98
2018-10-06T01:30:39.056Z,58.35
2018-10-06T01:32:45.264Z,59.10
2018-10-06T01:34:51.358Z,59.16
2018-10-06T01:36:57.426Z,59.18
2018-10-06T01:39:03.795Z,58.60
2018-10-06T01:41:10.101Z,58.98
2018-10-06T01:43:16.552Z,58.87
2018-10-06T01:45:22.609Z,58.35
2018-10-06T01:47:28.711Z,58.30
2018-10-06T01:49:34.762Z,58.46
2018-10-06T01:51:40.850Z,58.67
2018-10-06T01:53:47.143Z,58.91
2018-10-06T01:55:53.227Z,58.67
2018-10-06T01:57:59.239Z,58.98
2018-10-06T02:00:05.432Z,58.99
2018-10-06T02:02:11.500Z,58.47
2018-10-06T02:04:17.637Z,58.28
2018-10-06T02:06:23.755Z,59.10
2018-10-06T02:08:29.845Z,58.68
2018-10-06T02:10:35.943Z,58.92
2018-10-06T02:12:44.708Z,58.69
2018-10-06T02:14:50.889Z,59.04
2018-10-06T02:16:57.027Z,59.13
2018-10-06T02:19:03.140Z,59.17
2018-10-06T02:21:09.308Z,59.15
2018-10-06T02:23:15.463Z,59.35
2018-10-06T02:25:22.147Z,59.36
2018-10-06T02:27:28.291Z,59.35
2018-10-06T02:29:34.383Z,59.06
2018-10-06T02:31:40.542Z,58.80
2018-10-06T02:33:46.799Z,58.69
2018-10-06T02:35:52.920Z,58.55
2018-10-06T02:37:59.008Z,59.33
2018-10-06T02:40:05.148Z,59.23
2018-10-06T02:42:11.305Z,59.22
2018-10-06T02:44:17.431Z,59.02
2018-10-06T02:46:23.551Z,59.63
2018-10-06T02:48:29.662Z,59.29
2018-10-06T02:50:36.289Z,59.76
2018-10-06T02:52:42.399Z,59.67
2018-10-06T02:54:48.511Z,59.86
2018-10-06T02:56:54.666Z,59.34
2018-10-06T02:59:00.761Z,59.34
2018-10-06T03:01:07.810Z,59.69
2018-10-06T03:03:13.908Z,59.37
2018-10-06T03:05:20.004Z,59.44
2018-10-06T03:07:26.111Z,59.22
2018-10-06T03:09:32.222Z,59.24
2018-10-06T03:11:38.299Z,59.23
2018-10-06T03:13:44.741Z,59.24
2018-10-06T03:15:50.848Z,58.73
2018-10-06T03:17:56.992Z,59.42
2018-10-06T03:20:03.099Z,59.33
2018-10-06T03:22:09.177Z,59.24
2018-10-06T03:24:15.286Z,59.14
2018-10-06T03:26:21.409Z,58.98
2018-10-06T03:28:27.513Z,59.04
2018-10-06T03:30:33.604Z,59.40
2018-10-06T03:32:39.677Z,58.94
2018-10-06T03:34:45.845Z,59.80
2018-10-06T03:36:52.043Z,59.37
2018-10-06T03:38:58.617Z,60.07
2018-10-06T03:41:04.668Z,59.79
2018-10-06T03:43:10.886Z,59.70
2018-10-06T03:45:16.943Z,59.83
2018-10-06T03:47:23.127Z,60.09
2018-10-06T03:49:29.257Z,60.05
2018-10-06T03:51:35.453Z,59.58
2018-10-06T03:53:41.618Z,60.12
2018-10-06T03:55:47.699Z,59.72
2018-10-06T03:57:53.804Z,60.08
2018-10-06T03:59:59.945Z,59.85
2018-10-06T04:02:06.015Z,59.92
2018-10-06T04:04:12.123Z,60.06
2018-10-06T04:06:18.272Z,60.31
2018-10-06T04:08:24.445Z,60.63
2018-10-06T04:10:30.534Z,60.23
2018-10-06T04:12:36.585Z,60.23
2018-10-06T04:14:42.706Z,60.37
2018-10-06T04:16:48.900Z,60.30
2018-10-06T04:18:54.947Z,60.43
2018-10-06T04:21:01.124Z,60.25
2018-10-06T04:23:07.319Z,60.74
2018-10-06T04:25:13.445Z,60.49
2018-10-06T04:27:19.532Z,59.93
2018-10-06T04:29:25.562Z,59.91
2018-10-06T04:31:31.900Z,60.76
2018-10-06T04:33:37.993Z,60.56
2018-10-06T04:35:44.157Z,60.23
2018-10-06T04:37:50.278Z,60.51
2018-10-06T04:39:56.602Z,60.15
2018-10-06T04:42:02.747Z,60.41
2018-10-06T04:44:09.983Z,60.42
2018-10-06T04:46:16.119Z,60.66
2018-10-06T04:48:22.181Z,60.50
2018-10-06T04:50:28.297Z,60.26
2018-10-06T04:52:34.705Z,59.65
2018-10-06T04:54:40.773Z,60.32
2018-10-06T04:56:46.892Z,60.04
2018-10-06T04:58:53.077Z,60.53
2018-10-06T05:00:59.214Z,59.99
2018-10-06T05:03:05.332Z,60.62
2018-10-06T05:05:11.421Z,60.46
2018-10-06T05:07:17.543Z,60.48
2018-10-06T05:09:23.755Z,60.09
2018-10-06T05:11:29.809Z,59.71
2018-10-06T05:13:35.958Z,60.40
2018-10-06T05:15:42.054Z,60.85
2018-10-06T05:17:48.130Z,60.50
2018-10-06T05:19:54.301Z,60.48
2018-10-06T05:22:00.398Z,60.42
2018-10-06T05:24:06.563Z,60.06
2018-10-06T05:26:12.716Z,60.07
2018-10-06T05:28:18.817Z,60.35
2018-10-06T05:30:24.920Z,60.16
2018-10-06T05:32:31.041Z,60.69
2018-10-06T05:34:37.804Z,60.90
2018-10-06T05:36:44.008Z,60.51
2018-10-06T05:38:50.154Z,60.56
2018-10-06T05:40:56.284Z,61.15
2018-10-06T05:43:02.403Z,60.73
2018-10-06T05:45:08.499Z,60.72
2018-10-06T05:47:14.709Z,61.13
2018-10-06T05:49:20.850Z,61.00
2018-10-06T05:51:27.243Z,60.63
2018-10-06T05:53:33.440Z,60.55
2018-10-06T05:55:39.582Z,60.77
2018-10-06T05:57:45.712Z,60.21
2018-10-06T05:59:51.861Z,61.41
2018-10-06T06:01:58.050Z,61.34
2018-10-06T06:04:04.167Z,61.17
2018-10-06T06:06:10.280Z,60.65
2018-10-06T06:08:16.488Z,60.88
2018-10-06T06:10:22.615Z,60.98
2018-10-06T06:12:29.444Z,60.89
2018-10-06T06:14:35.613Z,61.49
2018-10-06T06:16:41.826Z,61.27
2018-10-06T06:18:47.971Z,61.38
2018-10-06T06:20:54.068Z,60.58
2018-10-06T06:23:00.177Z,61.44
2018-10-06T06:25:06.392Z,61.58
2018-10-06T06:27:12.533Z,61.09
2018-10-06T06:29:18.663Z,61.16
2018-10-06T06:31:24.862Z,61.60
2018-10-06T06:33:30.981Z,60.94
2018-10-06T06:35:37.080Z,60.97
2018-10-06T06:37:43.225Z,61.28
2018-10-06T06:39:49.295Z,61.30
2018-10-06T06:41:55.441Z,61.40
2018-10-06T06:44:01.620Z,61.99
2018-10-06T06:46:08.087Z,61.49
2018-10-06T06:48:14.245Z,61.85
2018-10-06T06:50:20.374Z,62.06
2018-10-06T06:52:26.537Z,61.56
2018-10-06T06:54:32.672Z,61.41
2018-10-06T06:56:38.847Z,61.95
2018-10-06T06:58:45.048Z,62.27
2018-10-06T07:00:51.228Z,62.42
2018-10-06T07:02:57.823Z,62.37
2018-10-06T07:05:03.983Z,62.42
2018-10-06T07:07:10.073Z,62.70
2018-10-06T07:09:16.184Z,62.45
2018-10-06T07:11:23.328Z,62.47
2018-10-06T07:13:29.572Z,62.67
2018-10-06T07:15:35.736Z,62.06
2018-10-06T07:17:41.872Z,62.23
2018-10-06T07:19:48.045Z,61.98
2018-10-06T07:21:54.198Z,62.51
2018-10-06T07:24:00.341Z,62.20
2018-10-06T07:26:06.530Z,62.05
2018-10-06T07:28:12.660Z,62.09
2018-10-06T07:30:18.788Z,62.41
2018-10-06T07:32:25.012Z,62.54
2018-10-06T07:34:31.146Z,62.23
2018-10-06T07:36:37.294Z,62.40
2018-10-06T07:38:43.387Z,62.97
2018-10-06T07:40:49.565Z,62.10
2018-10-06T07:42:55.681Z,62.73
2018-10-06T07:45:01.907Z,62.56
2018-10-06T07:47:08.000Z,62.67
2018-10-06T07:49:14.155Z,62.11
2018-10-06T07:51:20.332Z,62.39
2018-10-06T07:53:26.465Z,62.94
2018-10-06T07:55:33.218Z,62.90
2018-10-06T07:57:39.446Z,62.94
2018-10-06T07:59:45.678Z,61.94
2018-10-06T08:01:51.833Z,62.53
2018-10-06T08:03:58.018Z,62.58
2018-10-06T08:06:04.228Z,62.24
2018-10-06T08:08:10.418Z,61.86
2018-10-06T08:10:16.547Z,61.95
2018-10-06T08:12:22.669Z,62.68
2018-10-06T08:14:28.896Z,62.00
2018-10-06T08:16:35.204Z,61.88
2018-10-06T08:18:41.416Z,62.12
2018-10-06T08:20:48.188Z,61.89
2018-10-06T08:22:54.251Z,62.33
2018-10-06T08:25:00.491Z,61.60
2018-10-06T08:27:06.850Z,61.30
2018-10-06T08:29:12.992Z,62.03
2018-10-06T08:31:19.167Z,62.35
2018-10-06T08:33:25.310Z,61.77
2018-10-06T08:35:31.487Z,61.09
2018-10-06T08:37:37.576Z,61.34
2018-10-06T08:39:44.023Z,61.06
2018-10-06T08:41:50.237Z,61.26
2018-10-06T08:43:56.424Z,61.39
2018-10-06T08:46:02.640Z,60.93
2018-10-06T08:48:08.858Z,60.62
2018-10-06T08:50:15.106Z,61.09
2018-10-06T08:52:21.657Z,61.25
2018-10-06T08:54:27.816Z,61.01
2018-10-06T08:56:33.999Z,60.36
2018-10-06T08:58:40.121Z,60.75
2018-10-06T09:00:46.275Z,60.66
2018-10-06T09:02:52.509Z,59.73
2018-10-06T09:04:58.602Z,59.67
2018-10-06T09:07:04.883Z,59.82
2018-10-06T09:09:11.055Z,59.70
2018-10-06T09:11:17.211Z,59.68
2018-10-06T09:13:23.358Z,60.04
2018-10-06T09:15:29.567Z,59.81
2018-10-06T09:17:35.750Z,59.15
2018-10-06T09:19:41.886Z,59.33
2018-10-06T09:21:47.993Z,59.22
2018-10-06T09:23:54.195Z,59.17
2018-10-06T09:26:00.391Z,58.91
2018-10-06T09:28:06.950Z,58.70
2018-10-06T09:30:13.076Z,58.75
2018-10-06T09:32:19.212Z,59.39
2018-10-06T09:34:27.223Z,58.79
2018-10-06T09:36:33.410Z,58.52
2018-10-06T09:38:39.493Z,59.12
2018-10-06T09:40:45.608Z,58.50
2018-10-06T09:42:51.717Z,59.04
2018-10-06T09:44:57.801Z,59.34
2018-10-06T09:47:03.925Z,59.32
2018-10-06T09:49:10.042Z,58.64
2018-10-06T09:51:16.267Z,58.95
2018-10-06T09:53:22.477Z,59.30
2018-10-06T09:55:28.611Z,58.49
2018-10-06T09:57:34.705Z,58.26
2018-10-06T09:59:40.837Z,58.49
2018-10-06T10:01:52.274Z,58.34
2018-10-06T10:04:03.501Z,58.26
2018-10-06T10:06:09.613Z,58.75
2018-10-06T10:08:15.857Z,58.31
2018-10-06T10:10:21.921Z,57.63
2018-10-06T10:12:28.762Z,58.07
2018-10-06T10:14:34.953Z,57.97
2018-10-06T10:16:41.080Z,58.12
2018-10-06T10:18:47.275Z,57.23
2018-10-06T10:20:53.418Z,57.85
2018-10-06T10:23:00.114Z,56.85
2018-10-06T10:25:06.556Z,56.99
2018-10-06T10:27:12.691Z,56.56
2018-10-06T10:29:18.819Z,56.41
2018-10-06T10:31:25.211Z,57.05
2018-10-06T10:33:32.930Z,56.96
2018-10-06T10:35:39.081Z,56.71
2018-10-06T10:37:45.240Z,56.71
2018-10-06T10:39:51.400Z,55.98
2018-10-06T10:41:57.480Z,55.44
2018-10-06T10:44:03.725Z,55.93
2018-10-06T10:46:09.974Z,55.71
2018-10-06T10:48:16.368Z,55.58
2018-10-06T10:50:22.529Z,55.73
2018-10-06T10:52:28.787Z,54.89
2018-10-06T10:54:34.969Z,55.32
2018-10-06T10:56:41.091Z,54.59
2018-10-06T10:58:47.254Z,54.36
2018-10-06T11:00:53.472Z,54.78
2018-10-06T11:02:59.552Z,54.46
2018-10-06T11:05:06.073Z,54.25
2018-10-06T11:07:12.225Z,54.11
2018-10-06T11:09:18.451Z,54.16
2018-10-06T11:11:24.639Z,53.20
2018-10-06T11:13:30.754Z,53.42
2018-10-06T11:15:36.879Z,53.50
2018-10-06T11:17:43.086Z,53.23
2018-10-06T11:19:49.229Z,53.04
2018-10-06T11:21:57.047Z,52.68
2018-10-06T11:24:03.876Z,51.72
2018-10-06T11:26:10.036Z,51.73
2018-10-06T11:28:16.129Z,51.49
2018-10-06T11:30:22.218Z,51.27
2018-10-06T11:32:29.126Z,51.79
2018-10-06T11:34:35.227Z,52.17
2018-10-06T11:36:41.366Z,51.87
2018-10-06T11:38:47.497Z,51.36
2018-10-06T11:40:53.701Z,51.59
2018-10-06T11:43:00.007Z,51.55
2018-10-06T11:45:06.269Z,51.16
2018-10-06T11:47:12.590Z,50.39
2018-10-06T11:49:18.758Z,51.06
2018-10-06T11:51:25.145Z,50.63
2018-10-06T11:53:31.330Z,50.72
2018-10-06T11:55:37.444Z,50.40
2018-10-06T11:57:43.731Z,50.13
2018-10-06T11:59:50.035Z,50.02
2018-10-06T12:01:56.199Z,49.16
2018-10-06T12:04:02.325Z,48.87
2018-10-06T12:06:08.499Z,49.68
2018-10-06T12:08:15.276Z,49.46
2018-10-06T12:10:21.451Z,49.50
2018-10-06T12:12:27.767Z,49.55
2018-10-06T12:14:33.923Z,48.74
2018-10-06T12:16:40.122Z,49.33
2018-10-06T12:18:47.107Z,48.46
2018-10-06T12:20:53.286Z,48.94
2018-10-06T12:22:59.408Z,48.53
2018-10-06T12:25:05.674Z,48.15
2018-10-06T12:27:11.900Z,47.95
2018-10-06T12:29:18.158Z,48.59
2018-10-06T12:31:24.351Z,47.75
2018-10-06T12:33:30.483Z,47.72
2018-10-06T12:35:36.612Z,47.80
2018-10-06T12:37:42.861Z,48.44
2018-10-06T12:39:49.031Z,47.49
2018-10-06T12:41:55.146Z,47.36
2018-10-06T12:44:01.264Z,46.93
2018-10-06T12:46:07.432Z,46.90
2018-10-06T12:48:13.655Z,46.79
2018-10-06T12:50:19.936Z,47.73
2018-10-06T12:52:26.052Z,46.66
2018-10-06T12:54:32.176Z,47.28
2018-10-06T12:56:38.469Z,47.06
2018-10-06T12:58:44.601Z,47.32
2018-10-06T13:00:50.788Z,47.28
2018-10-06T13:02:58.086Z,46.45
2018-10-06T13:05:04.197Z,46.35
2018-10-06T13:07:10.402Z,46.58
2018-10-06T13:09:16.757Z,46.38
2018-10-06T13:11:23.684Z,46.28
2018-10-06T13:13:29.901Z,47.15
2018-10-06T13:15:36.309Z,47.13
2018-10-06T13:17:42.522Z,47.01
2018-10-06T13:19:48.670Z,47.02
2018-10-06T13:21:54.829Z,46.97
2018-10-06T13:24:01.015Z,46.91
2018-10-06T13:26:07.268Z,46.86
2018-10-06T13:28:13.544Z,46.14
2018-10-06T13:30:19.688Z,46.88
2018-10-06T13:32:26.263Z,46.90
2018-10-06T13:34:32.546Z,46.32
2018-10-06T13:36:39.141Z,46.26
2018-10-06T13:38:45.539Z,46.20
2018-10-06T13:40:51.660Z,46.81
2018-10-06T13:42:57.857Z,45.95
2018-10-06T13:45:04.112Z,46.77
2018-10-06T13:47:10.291Z,47.04
2018-10-06T13:49:16.484Z,46.81
2018-10-06T13:51:22.670Z,46.99
2018-10-06T13:53:28.873Z,46.82
2018-10-06T13:55:34.970Z,46.01
2018-10-06T13:57:41.122Z,46.17
2018-10-06T13:59:47.433Z,46.59
2018-10-06T14:01:53.542Z,46.27
2018-10-06T14:03:59.934Z,45.90
2018-10-06T14:06:06.856Z,46.61
2018-10-06T14:08:13.149Z,45.89
2018-10-06T14:10:19.394Z,45.71
2018-10-06T14:12:25.493Z,46.61
2018-10-06T14:14:31.751Z,46.18
2018-10-06T14:16:37.904Z,45.59
2018-10-06T14:18:44.108Z,45.77
2018-10-06T14:20:50.273Z,46.28
2018-10-06T14:22:56.434Z,45.58
2018-10-06T14:25:02.653Z,45.37
2018-10-06T14:27:09.515Z,45.43
2018-10-06T14:29:15.650Z,46.04
2018-10-06T14:31:21.953Z,45.42
2018-10-06T14:33:28.100Z,45.97
2018-10-06T14:35:34.322Z,45.92
2018-10-06T14:37:41.552Z,45.92
2018-10-06T14:39:48.051Z,45.98
2018-10-06T14:41:54.264Z,45.99
2018-10-06T14:44:00.707Z,45.45
2018-10-06T14:46:07.350Z,45.46
2018-10-06T14:48:13.472Z,45.05
2018-10-06T14:50:19.809Z,45.01
2018-10-06T14:52:25.946Z,45.02
2018-10-06T14:54:32.316Z,46.07
2018-10-06T14:56:38.573Z,46.01
2018-10-06T14:58:44.637Z,45.74
2018-10-06T15:00:50.767Z,46.02
2018-10-06T15:02:56.954Z,45.24
2018-10-06T15:05:03.259Z,46.08
2018-10-06T15:07:09.407Z,46.27
2018-10-06T15:09:15.548Z,45.80
2018-10-06T15:11:21.705Z,46.26
2018-10-06T15:13:27.952Z,46.20
2018-10-06T15:15:34.080Z,46.38
2018-10-06T15:17:41.545Z,45.50
2018-10-06T15:19:48.110Z,45.54
2018-10-06T15:21:55.078Z,46.47
2018-10-06T15:24:01.801Z,45.75
2018-10-06T15:26:09.444Z,46.51
2018-10-06T15:28:18.245Z,46.36
2018-10-06T15:30:25.110Z,46.53
2018-10-06T15:32:31.793Z,46.48
2018-10-06T15:34:39.561Z,46.60
2018-10-06T15:36:47.476Z,46.22
2018-10-06T15:38:53.569Z,45.64
2018-10-06T15:41:00.116Z,45.70
2018-10-06T15:43:08.009Z,46.49
2018-10-06T15:45:14.498Z,46.55
2018-10-06T15:47:21.661Z,45.79
2018-10-06T15:49:28.261Z,46.56
2018-10-06T15:51:35.927Z,45.71
2018-10-06T15:53:42.623Z,46.50
2018-10-06T15:55:49.408Z,46.42
2018-10-06T15:57:55.549Z,46.58
2018-10-06T16:00:02.088Z,45.92
2018-10-06T16:02:08.389Z,46.64
2018-10-06T16:04:14.562Z,46.46
2018-10-06T16:06:20.742Z,45.94
2018-10-06T16:08:26.899Z,46.49
2018-10-06T16:10:33.144Z,46.82
2018-10-06T16:12:39.294Z,46.31
2018-10-06T16:14:45.498Z,46.34
2018-10-06T16:16:51.714Z,47.25
2018-10-06T16:18:57.835Z,47.08
2018-10-06T16:21:04.316Z,47.20
2018-10-06T16:23:10.491Z,47.21
2018-10-06T16:25:16.643Z,47.51
2018-10-06T16:27:22.891Z,47.62
2018-10-06T16:29:29.523Z,47.80
2018-10-06T16:31:35.696Z,47.19
2018-10-06T16:33:42.654Z,47.94
2018-10-06T16:35:48.910Z,47.73
2018-10-06T16:37:55.007Z,47.34
2018-10-06T16:40:01.178Z,47.82
2018-10-06T16:42:07.455Z,47.96
2018-10-06T16:44:13.645Z,48.11
2018-10-06T16:46:19.759Z,47.29
2018-10-06T16:48:25.888Z,48.27
2018-10-06T16:50:32.136Z,48.17
2018-10-06T16:52:38.344Z,47.41
2018-10-06T16:54:44.479Z,47.46
2018-10-06T16:56:50.675Z,47.57
2018-10-06T16:58:56.884Z,48.39
2018-10-06T17:01:03.079Z,47.87
2018-10-06T17:03:09.380Z,48.74
2018-10-06T17:05:15.535Z,48.96
2018-10-06T17:07:21.736Z,48.30
2018-10-06T17:09:27.923Z,48.10
2018-10-06T17:11:34.160Z,49.16
2018-10-06T17:13:40.343Z,49.26
2018-10-06T17:15:46.455Z,49.52
2018-10-06T17:17:54.536Z,49.20
2018-10-06T17:20:00.754Z,48.86
2018-10-06T17:22:07.657Z,49.54
2018-10-06T17:24:13.895Z,49.56
2018-10-06T17:26:20.003Z,48.91
2018-10-06T17:28:26.118Z,49.07
2018-10-06T17:30:32.311Z,49.97
2018-10-06T17:32:38.485Z,49.30
2018-10-06T17:34:44.735Z,50.04
2018-10-06T17:36:51.176Z,50.03
2018-10-06T17:38:57.448Z,50.05
2018-10-06T17:41:03.669Z,49.78
2018-10-06T17:43:12.550Z,49.98
2018-10-06T17:45:18.653Z,50.01
2018-10-06T17:47:24.893Z,50.18
2018-10-06T17:49:31.062Z,50.75
2018-10-06T17:51:37.311Z,50.67
2018-10-06T17:53:43.535Z,51.24
2018-10-06T17:55:49.663Z,51.40
2018-10-06T17:57:55.805Z,51.81
2018-10-06T18:00:01.989Z,51.44
2018-10-06T18:02:08.371Z,50.82
2018-10-06T18:04:14.689Z,51.42
2018-10-06T18:06:20.899Z,50.68
2018-10-06T18:08:27.080Z,50.96
2018-10-06T18:10:33.501Z,51.11
2018-10-06T18:12:39.744Z,51.39
2018-10-06T18:14:46.026Z,51.30
2018-10-06T18:16:52.415Z,51.46
2018-10-06T18:18:58.644Z,51.09
2018-10-06T18:21:04.937Z,51.67
2018-10-06T18:23:11.137Z,51.70
2018-10-06T18:25:17.351Z,51.67
2018-10-06T18:27:23.665Z,51.51
2018-10-06T18:29:29.917Z,51.53
2018-10-06T18:31:36.090Z,52.41
2018-10-06T18:33:42.288Z,52.22
2018-10-06T18:35:48.456Z,51.85
2018-10-06T18:37:55.197Z,52.37
2018-10-06T18:40:01.416Z,52.45
2018-10-06T18:42:07.626Z,52.50
2018-10-06T18:44:13.901Z,52.34
2018-10-06T18:46:20.339Z,51.72
2018-10-06T18:48:26.541Z,51.73
2018-10-06T18:50:32.755Z,51.57
2018-10-06T18:52:39.015Z,52.42
2018-10-06T18:54:45.200Z,52.41
2018-10-06T18:56:51.415Z,51.73
2018-10-06T18:58:57.648Z,52.53
2018-10-06T19:01:04.279Z,51.86
2018-10-06T19:03:10.553Z,52.29
2018-10-06T19:05:16.806Z,52.47
2018-10-06T19:07:23.032Z,52.38
2018-10-06T19:09:29.255Z,52.39
2018-10-06T19:11:35.801Z,53.51
2018-10-06T19:13:41.946Z,53.23
2018-10-06T19:15:48.799Z,52.52
2018-10-06T19:17:54.929Z,52.67
2018-10-06T19:20:01.074Z,52.69
2018-10-06T19:22:07.370Z,52.65
2018-10-06T19:24:13.445Z,52.88
2018-10-06T19:26:19.654Z,52.95
2018-10-06T19:28:25.885Z,53.37
2018-10-06T19:30:32.064Z,53.08
2018-10-06T19:32:38.263Z,53.35
2018-10-06T19:34:44.528Z,52.65
2018-10-06T19:36:50.894Z,52.89
2018-10-06T19:38:58.836Z,52.97
2018-10-06T19:41:05.078Z,53.48
2018-10-06T19:43:11.325Z,52.95
2018-10-06T19:45:17.576Z,53.68
2018-10-06T19:47:23.739Z,53.52
2018-10-06T19:49:29.914Z,54.01
2018-10-06T19:51:36.192Z,53.36
2018-10-06T19:53:42.376Z,53.49
2018-10-06T19:55:48.644Z,53.46
2018-10-06T19:57:55.382Z,53.83
2018-10-06T20:00:01.760Z,54.39
2018-10-06T20:02:08.134Z,53.57
2018-10-06T20:04:14.493Z,53.70
2018-10-06T20:06:20.602Z,54.20
2018-10-06T20:08:26.767Z,54.49
2018-10-06T20:10:33.436Z,54.65
2018-10-06T20:12:39.826Z,54.58
2018-10-06T20:14:45.975Z,54.83
2018-10-06T20:16:52.215Z,54.53
2018-10-06T20:18:58.471Z,54.65
2018-10-06T20:21:04.672Z,54.72
2018-10-06T20:23:10.808Z,54.83
2018-10-06T20:25:17.021Z,54.68
2018-10-06T20:27:23.230Z,54.72
2018-10-06T20:29:29.404Z,54.93
2018-10-06T20:31:35.659Z,55.54
2018-10-06T20:33:41.857Z,54.77
2018-10-06T20:35:48.059Z,55.50
2018-10-06T20:37:54.287Z,55.01
2018-10-06T20:40:00.523Z,54.94
2018-10-06T20:42:06.846Z,54.87
2018-10-06T20:44:13.080Z,55.25
2018-10-06T20:46:19.488Z,55.23
2018-10-06T20:48:25.620Z,54.97
2018-10-06T20:50:31.776Z,55.65
2018-10-06T20:52:37.962Z,55.38
2018-10-06T20:54:44.253Z,55.55
2018-10-06T20:56:50.429Z,55.62
2018-10-06T20:58:56.659Z,56.05
2018-10-06T21:01:03.185Z,55.78
2018-10-06T21:03:09.439Z,56.07
2018-10-06T21:05:15.696Z,56.25
2018-10-06T21:07:21.957Z,55.61
2018-10-06T21:09:28.138Z,55.74
2018-10-06T21:11:34.430Z,56.40
2018-10-06T21:13:40.543Z,56.40
2018-10-06T21:15:46.765Z,56.33
2018-10-06T21:17:52.893Z,56.64
2018-10-06T21:19:59.081Z,56.87
2018-10-06T21:22:05.274Z,56.85
2018-10-06T21:24:11.523Z,56.73
2018-10-06T21:26:17.718Z,56.44
2018-10-06T21:28:24.097Z,56.28
2018-10-06T21:30:30.227Z,57.18
2018-10-06T21:32:36.570Z,57.13
2018-10-06T21:34:42.720Z,56.73
2018-10-06T21:36:48.924Z,56.70
2018-10-06T21:38:55.413Z,56.86
2018-10-06T21:41:01.547Z,56.61
2018-10-06T21:43:07.776Z,57.28
2018-10-06T21:45:13.896Z,56.66
2018-10-06T21:47:20.044Z,57.58
2018-10-06T21:49:26.263Z,56.66
2018-10-06T21:51:32.438Z,57.33
2018-10-06T21:53:38.505Z,57.34
2018-10-06T21:55:44.675Z,56.98
2018-10-06T21:57:51.472Z,56.85
2018-10-06T21:59:57.605Z,57.13
2018-10-06T22:02:03.821Z,57.32
2018-10-06T22:04:10.075Z,57.84
2018-10-06T22:06:16.370Z,57.71
2018-10-06T22:08:22.612Z,57.88
2018-10-06T22:10:28.789Z,57.84
2018-10-06T22:12:35.003Z,57.27
2018-10-06T22:14:41.200Z,58.03
2018-10-06T22:16:47.522Z,57.77
2018-10-06T22:18:53.660Z,57.60
2018-10-06T22:20:59.857Z,58.08
2018-10-06T22:23:06.207Z,57.76
2018-10-06T22:25:12.352Z,58.32
2018-10-06T22:27:18.588Z,58.28
2018-10-06T22:29:24.858Z,57.60
2018-10-06T22:31:30.946Z,57.73
2018-10-06T22:33:37.133Z,58.28
2018-10-06T22:35:43.248Z,57.72
2018-10-06T22:37:49.400Z,58.01
2018-10-06T22:39:55.523Z,58.32
2018-10-06T22:42:01.726Z,58.13
2018-10-06T22:44:07.908Z,58.40
2018-10-06T22:46:14.059Z,58.50
2018-10-06T22:48:20.275Z,57.62
2018-10-06T22:50:26.460Z,57.68
2018-10-06T22:52:32.592Z,57.90
2018-10-06T22:54:38.779Z,58.40
2018-10-06T22:56:44.988Z,58.42
2018-10-06T22:58:51.105Z,57.88
2018-10-06T23:00:57.269Z,58.28
2018-10-06T23:03:03.428Z,58.22
2018-10-06T23:05:09.535Z,58.97
2018-10-06T23:07:15.699Z,58.35
2018-10-06T23:09:22.661Z,58.26
2018-10-06T23:11:28.781Z,57.90
2018-10-06T23:13:34.933Z,58.62
2018-10-06T23:15:41.049Z,58.38
2018-10-06T23:17:47.257Z,58.38
2018-10-06T23:19:53.409Z,58.82
2018-10-06T23:21:59.577Z,58.96
2018-10-06T23:24:05.716Z,59.09
2018-10-06T23:26:11.867Z,58.71
2018-10-06T23:28:17.924Z,58.92
2018-10-06T23:30:24.271Z,59.27
2018-10-06T23:32:30.454Z,59.37
2018-10-06T23:34:36.623Z,59.19
2018-10-06T23:36:42.680Z,59.22
2018-10-06T23:38:48.796Z,59.99
2018-10-06T23:40:54.929Z,58.91
2018-10-06T23:43:01.063Z,59.62
2018-10-06T23:45:07.328Z,59.50
2018-10-06T23:47:13.487Z,58.99
2018-10-06T23:49:19.690Z,59.66
2018-10-06T23:51:25.824Z,58.84
2018-10-06T23:53:31.970Z,58.95
2018-10-06T23:55:38.106Z,59.61
2018-10-06T23:57:44.246Z,59.55
2018-10-06T23:59:50.347Z,59.38
